createdAt,value
2022-11-07T00:00:47.497Z,9.98
2022-11-07T00:07:51.395Z,9.98
2022-11-07T00:14:52.989Z,10.06
2022-11-07T00:21:54.521Z,10.09
2022-11-07T00:28:56.321Z,10.08
2022-11-07T00:35:57.941Z,10.05
2022-11-07T00:42:59.502Z,10.11
2022-11-07T00:50:01.077Z,10.06
2022-11-07T00:57:02.694Z,10.04
2022-11-07T01:04:22.833Z,10.04
2022-11-07T01:11:25.042Z,9.93
2022-11-07T01:18:26.658Z,10.09
2022-11-07T01:25:28.211Z,10.12
2022-11-07T01:32:29.792Z,10.16
2022-11-07T01:39:31.401Z,10.18
2022-11-07T01:46:39.006Z,10.14
2022-11-07T01:53:40.770Z,10.08
2022-11-07T02:00:42.317Z,10.09
2022-11-07T02:07:43.945Z,10.17
2022-11-07T02:14:45.610Z,10.20
2022-11-07T02:21:50.743Z,10.24
2022-11-07T02:28:52.612Z,10.28
2022-11-07T02:35:54.178Z,10.25
2022-11-07T02:42:55.890Z,10.26
2022-11-07T02:49:57.462Z,10.36
2022-11-07T02:56:59.034Z,10.35
2022-11-07T03:04:00.572Z,10.41
2022-11-07T03:11:02.462Z,10.48
2022-11-07T03:18:04.135Z,10.37
2022-11-07T03:25:06.631Z,10.44
2022-11-07T03:32:08.283Z,10.57
2022-11-07T03:39:09.835Z,10.60
2022-11-07T03:46:15.106Z,10.66
2022-11-07T03:53:22.179Z,10.71
2022-11-07T04:00:25.515Z,10.77
2022-11-07T04:07:27.107Z,10.79
2022-11-07T04:14:46.971Z,10.89
2022-11-07T04:21:48.574Z,10.93
2022-11-07T04:28:50.122Z,11.01
2022-11-07T04:35:51.726Z,11.03
2022-11-07T04:42:53.683Z,10.97
2022-11-07T04:49:55.264Z,11.10
2022-11-07T04:56:56.882Z,11.18
2022-11-07T05:03:58.566Z,11.18
2022-11-07T05:11:00.127Z,11.18
2022-11-07T05:18:01.743Z,11.22
2022-11-07T05:25:03.309Z,11.24
2022-11-07T05:32:05.138Z,11.26
2022-11-07T05:39:06.718Z,11.28
2022-11-07T05:46:11.010Z,11.29
2022-11-07T05:53:12.916Z,11.38
2022-11-07T06:00:15.091Z,11.40
2022-11-07T06:07:16.613Z,11.43
2022-11-07T06:14:18.238Z,11.44
2022-11-07T06:21:19.790Z,11.46
2022-11-07T06:28:21.368Z,11.44
2022-11-07T06:35:22.902Z,11.51
2022-11-07T06:42:25.921Z,11.59
2022-11-07T06:49:27.532Z,11.67
2022-11-07T06:56:29.090Z,11.57
2022-11-07T07:03:30.720Z,11.53
2022-11-07T07:10:35.839Z,11.59
2022-11-07T07:17:37.475Z,11.68
2022-11-07T07:24:39.175Z,11.75
2022-11-07T07:31:41.838Z,11.82
2022-11-07T07:38:43.545Z,11.87
2022-11-07T07:45:45.113Z,11.98
2022-11-07T07:52:46.733Z,11.98
2022-11-07T07:59:48.348Z,12.04
2022-11-07T08:06:49.914Z,12.09
2022-11-07T08:13:51.486Z,12.08
2022-11-07T08:20:54.134Z,12.28
2022-11-07T08:27:55.694Z,12.32
2022-11-07T08:34:57.268Z,12.36
2022-11-07T08:41:58.850Z,12.51
2022-11-07T08:49:00.414Z,12.68
2022-11-07T08:56:06.369Z,12.96
2022-11-07T09:10:29.996Z,13.19
2022-11-07T09:17:31.591Z,13.23
2022-11-07T09:24:33.183Z,13.42
2022-11-07T09:31:34.740Z,13.64
2022-11-07T09:38:36.310Z,13.88
2022-11-07T09:45:44.474Z,14.12
2022-11-07T09:52:52.761Z,14.44
2022-11-07T10:00:26.515Z,14.51
2022-11-07T10:08:11.528Z,14.32
2022-11-07T10:15:27.110Z,14.33
2022-11-07T10:23:00.674Z,14.42
2022-11-07T10:30:02.267Z,14.50
2022-11-07T10:37:04.217Z,14.60
2022-11-07T10:44:09.764Z,14.75
2022-11-07T10:51:11.385Z,14.93
2022-11-07T10:58:18.935Z,15.14
2022-11-07T11:05:26.767Z,15.34
2022-11-07T11:12:34.566Z,15.49
2022-11-07T11:19:41.117Z,15.52
2022-11-07T11:26:43.909Z,15.70
2022-11-07T11:33:48.465Z,15.74
2022-11-07T11:41:03.260Z,15.82
2022-11-07T11:48:30.978Z,15.88
2022-11-07T11:55:37.821Z,16.13
2022-11-07T12:03:11.763Z,16.13
2022-11-07T12:10:34.251Z,16.21
2022-11-07T12:18:01.783Z,16.30
2022-11-07T12:25:12.482Z,16.38
2022-11-07T12:33:04.632Z,16.42
2022-11-07T12:40:08.899Z,16.39
2022-11-07T12:47:32.340Z,16.47
2022-11-07T12:54:44.526Z,16.50
2022-11-07T13:02:09.831Z,16.51
2022-11-07T13:09:33.154Z,16.51
2022-11-07T13:16:35.610Z,16.47
2022-11-07T13:23:37.236Z,16.45
2022-11-07T13:30:39.971Z,16.37
2022-11-07T13:37:41.613Z,16.36
2022-11-07T13:44:43.202Z,16.30
2022-11-07T13:51:46.876Z,16.25
2022-11-07T13:58:49.603Z,16.24
2022-11-07T14:05:51.252Z,16.22
2022-11-07T14:12:55.472Z,16.23
2022-11-07T14:20:14.176Z,16.23
2022-11-07T14:27:15.790Z,16.15
2022-11-07T14:34:18.585Z,16.19
2022-11-07T14:41:20.359Z,16.07
2022-11-07T14:48:27.425Z,16.04
2022-11-07T14:55:31.689Z,16.02
2022-11-07T15:02:33.423Z,15.89
2022-11-07T15:09:35.622Z,15.91
2022-11-07T15:16:38.955Z,15.94
2022-11-07T15:23:40.564Z,15.83
2022-11-07T15:30:42.921Z,15.89
2022-11-07T15:38:00.620Z,15.93
2022-11-07T15:45:02.240Z,15.82
2022-11-07T15:52:03.867Z,15.84
2022-11-07T15:59:05.895Z,15.79
2022-11-07T16:06:15.055Z,15.68
2022-11-07T16:13:16.714Z,15.72
2022-11-07T16:20:20.034Z,15.75
2022-11-07T16:27:21.649Z,15.66
2022-11-07T16:34:23.258Z,15.65
2022-11-07T16:41:24.899Z,15.61
2022-11-07T16:48:27.717Z,15.53
2022-11-07T16:55:29.355Z,15.37
2022-11-07T17:02:31.093Z,15.37
2022-11-07T17:09:32.785Z,15.24
2022-11-07T17:16:36.542Z,15.31
2022-11-07T17:23:38.146Z,15.28
2022-11-07T17:30:39.707Z,15.27
2022-11-07T17:37:41.255Z,15.26
2022-11-07T17:44:42.873Z,15.22
2022-11-07T17:51:44.739Z,15.25
2022-11-07T17:58:47.042Z,15.22
2022-11-07T18:05:51.658Z,15.25
2022-11-07T18:12:53.224Z,15.19
2022-11-07T18:19:54.802Z,15.25
2022-11-07T18:26:56.400Z,15.23
2022-11-07T18:34:02.239Z,15.26
2022-11-07T18:41:05.802Z,15.33
2022-11-07T18:48:07.403Z,15.29
2022-11-07T18:55:09.601Z,15.24
2022-11-07T19:02:12.142Z,15.29
2022-11-07T19:09:13.741Z,15.22
2022-11-07T19:16:16.552Z,15.16
2022-11-07T19:23:18.400Z,15.10
2022-11-07T19:30:20.201Z,15.02
2022-11-07T19:37:21.757Z,14.90
2022-11-07T19:44:23.363Z,14.97
2022-11-07T19:51:24.929Z,14.95
2022-11-07T19:58:26.498Z,14.95
2022-11-07T20:05:34.063Z,14.97
2022-11-07T20:12:35.685Z,14.98
2022-11-07T20:19:37.975Z,14.96
2022-11-07T20:26:39.818Z,14.95
2022-11-07T20:33:41.467Z,14.99
2022-11-07T20:40:43.040Z,14.92
2022-11-07T20:47:44.807Z,14.92
2022-11-07T20:54:46.417Z,14.91
2022-11-07T21:01:50.835Z,14.91
2022-11-07T21:08:52.450Z,14.92
2022-11-07T21:15:54.038Z,14.82
2022-11-07T21:22:55.622Z,14.82
2022-11-07T21:29:57.246Z,14.85
2022-11-07T21:36:58.851Z,14.80
2022-11-07T21:44:00.418Z,14.73
2022-11-07T21:51:10.108Z,14.74
2022-11-07T21:58:11.679Z,14.69
2022-11-07T22:05:15.284Z,14.68
2022-11-07T22:12:16.846Z,14.64
2022-11-07T22:19:18.556Z,14.69
2022-11-07T22:26:22.147Z,14.68
2022-11-07T22:33:23.751Z,14.63
2022-11-07T22:40:25.318Z,14.61
2022-11-07T22:47:26.967Z,14.52
2022-11-07T22:54:28.576Z,14.48
2022-11-07T23:01:32.181Z,14.51
2022-11-07T23:08:33.857Z,14.42
2022-11-07T23:15:35.467Z,14.39
2022-11-07T23:22:37.036Z,14.44
2022-11-07T23:29:38.588Z,14.35
2022-11-07T23:36:46.392Z,14.43
2022-11-07T23:43:52.204Z,14.37
2022-11-07T23:51:02.848Z,14.36
2022-11-07T23:58:30.578Z,14.29
